createdAt,value
2022-12-11T00:01:18.344Z,93.60
2022-12-11T00:03:45.684Z,81.03
2022-12-11T00:06:15.773Z,92.03
2022-12-11T00:08:43.544Z,89.28
2022-12-11T00:11:12.672Z,85.47
2022-12-11T00:13:40.013Z,76.07
2022-12-11T00:16:07.626Z,91.47
2022-12-11T00:18:34.968Z,75.32
2022-12-11T00:21:02.645Z,68.90
2022-12-11T00:23:31.309Z,71.03
2022-12-11T00:25:58.612Z,68.80
2022-12-11T00:28:25.939Z,70.25
2022-12-11T00:30:53.257Z,69.85
2022-12-11T00:33:20.574Z,61.97
2022-12-11T00:35:47.992Z,64.32
2022-12-11T00:38:16.179Z,60.67
2022-12-11T00:40:45.029Z,71.75
2022-12-11T00:43:12.892Z,65.88
2022-12-11T00:45:41.538Z,72.07
2022-12-11T00:48:09.037Z,65.93
2022-12-11T00:50:36.643Z,63.63
2022-12-11T00:53:05.176Z,67.70
2022-12-11T00:55:33.084Z,61.60
2022-12-11T00:58:01.733Z,63.30
2022-12-11T01:00:29.012Z,70.00
2022-12-11T01:02:56.293Z,74.85
2022-12-11T01:05:23.581Z,67.15
2022-12-11T01:07:50.971Z,70.00
2022-12-11T01:10:27.150Z,72.82
2022-12-11T01:12:55.037Z,68.00
2022-12-11T01:15:24.664Z,74.70
2022-12-11T01:17:52.207Z,68.07
2022-12-11T01:20:19.997Z,75.80
2022-12-11T01:22:47.298Z,72.65
2022-12-11T01:25:14.630Z,81.65
2022-12-11T01:27:41.920Z,73.05
2022-12-11T01:30:09.754Z,80.65
2022-12-11T01:32:38.363Z,87.15
2022-12-11T01:35:06.165Z,69.32
2022-12-11T01:37:33.497Z,65.00
2022-12-11T01:40:01.002Z,72.18
2022-12-11T01:42:29.378Z,70.53
2022-12-11T01:45:27.458Z,70.13
2022-12-11T01:47:57.548Z,66.82
2022-12-11T01:50:25.414Z,71.57
2022-12-11T01:52:53.188Z,60.83
2022-12-11T01:55:21.340Z,63.30
2022-12-11T01:57:49.924Z,68.20
2022-12-11T02:00:17.438Z,71.32
2022-12-11T02:02:44.876Z,62.03
2022-12-11T02:05:13.780Z,58.22
2022-12-11T02:07:43.547Z,61.58
2022-12-11T02:10:12.013Z,62.80
2022-12-11T02:12:41.463Z,64.13
2022-12-11T02:15:13.413Z,72.25
2022-12-11T02:17:42.794Z,62.58
2022-12-11T02:20:13.900Z,68.13
2022-12-11T02:22:59.888Z,68.65
2022-12-11T02:25:30.796Z,70.47
2022-12-11T02:28:07.881Z,75.38
2022-12-11T02:30:37.734Z,66.40
2022-12-11T02:33:05.325Z,65.57
2022-12-11T02:35:34.271Z,67.53
2022-12-11T02:38:03.820Z,60.65
2022-12-11T02:40:33.403Z,69.82
2022-12-11T02:43:02.217Z,62.17
2022-12-11T02:45:31.840Z,61.40
2022-12-11T02:47:59.906Z,60.60
2022-12-11T02:50:27.910Z,64.13
2022-12-11T02:52:56.243Z,56.17
2022-12-11T02:55:24.313Z,56.38
2022-12-11T02:57:53.667Z,58.03
2022-12-11T03:00:21.674Z,55.85
2022-12-11T03:02:50.398Z,55.35
2022-12-11T03:05:17.782Z,55.40
2022-12-11T03:07:45.369Z,48.78
2022-12-11T03:10:15.467Z,48.78
2022-12-11T03:12:43.783Z,43.80
2022-12-11T03:15:14.462Z,36.63
2022-12-11T03:17:46.182Z,37.97
2022-12-11T03:20:21.297Z,40.38
2022-12-11T03:22:51.103Z,38.92
2022-12-11T03:25:20.043Z,38.05
2022-12-11T03:27:49.941Z,37.67
2022-12-11T03:30:18.572Z,41.58
2022-12-11T03:32:50.112Z,39.35
2022-12-11T03:35:21.823Z,39.40
2022-12-11T03:37:50.600Z,40.92
2022-12-11T03:40:20.415Z,37.92
2022-12-11T03:42:49.910Z,37.47
2022-12-11T03:45:18.326Z,46.05
2022-12-11T03:47:46.452Z,39.60
2022-12-11T03:50:15.241Z,45.78
2022-12-11T03:52:46.217Z,37.60
2022-12-11T03:55:14.827Z,40.92
2022-12-11T03:57:42.286Z,39.65
2022-12-11T04:00:11.329Z,39.55
2022-12-11T04:02:38.671Z,40.25
2022-12-11T04:05:06.425Z,39.83
2022-12-11T04:07:33.829Z,39.97
2022-12-11T04:10:02.707Z,39.95
2022-12-11T04:12:30.026Z,39.85
2022-12-11T04:15:02.008Z,39.22
2022-12-11T04:17:47.177Z,47.22
2022-12-11T04:20:31.845Z,40.25
2022-12-11T04:23:16.958Z,41.92
2022-12-11T04:25:45.602Z,43.10
2022-12-11T04:28:12.922Z,46.45
2022-12-11T04:30:40.204Z,36.42
2022-12-11T04:33:07.602Z,37.55
2022-12-11T04:35:34.932Z,40.47
2022-12-11T04:38:02.230Z,44.85
2022-12-11T04:40:29.607Z,39.63
2022-12-11T04:42:58.287Z,37.92
2022-12-11T04:45:25.604Z,40.72
2022-12-11T04:47:53.020Z,39.53
2022-12-11T04:50:20.349Z,37.95
2022-12-11T04:52:47.707Z,37.13
2022-12-11T04:55:15.020Z,35.42
2022-12-11T04:57:42.386Z,37.42
2022-12-11T05:00:12.400Z,44.38
2022-12-11T05:02:40.874Z,41.45
2022-12-11T05:05:10.672Z,35.13
2022-12-11T05:07:38.724Z,40.85
2022-12-11T05:10:06.475Z,35.38
2022-12-11T05:12:34.065Z,36.25
2022-12-11T05:15:01.382Z,39.55
2022-12-11T05:17:30.044Z,40.83
2022-12-11T05:19:57.309Z,36.45
2022-12-11T05:22:24.636Z,36.97
2022-12-11T05:24:51.989Z,38.63
2022-12-11T05:27:19.270Z,40.20
2022-12-11T05:29:46.560Z,37.05
2022-12-11T05:32:13.978Z,38.05
2022-12-11T05:34:42.775Z,33.65
2022-12-11T05:37:10.263Z,38.50
2022-12-11T05:39:38.348Z,37.05
2022-12-11T05:42:05.767Z,36.47
2022-12-11T05:44:33.774Z,38.97
2022-12-11T05:47:01.113Z,41.53
2022-12-11T05:49:30.988Z,39.78
2022-12-11T05:51:59.990Z,43.45
2022-12-11T05:54:27.270Z,44.53
2022-12-11T05:56:54.597Z,42.67
2022-12-11T05:59:21.994Z,47.13
2022-12-11T06:01:49.447Z,37.47
2022-12-11T06:04:16.935Z,41.58
2022-12-11T06:06:44.629Z,42.10
2022-12-11T06:09:14.634Z,44.58
2022-12-11T06:11:42.514Z,37.88
2022-12-11T06:14:11.166Z,39.85
2022-12-11T06:16:38.610Z,41.13
2022-12-11T06:19:06.111Z,41.83
2022-12-11T06:21:33.995Z,47.05
2022-12-11T06:24:02.245Z,44.80
2022-12-11T06:26:31.856Z,44.60
2022-12-11T06:28:59.155Z,38.30
2022-12-11T06:31:26.543Z,41.55
2022-12-11T06:33:54.163Z,34.55
2022-12-11T06:36:22.232Z,41.60
2022-12-11T06:38:49.652Z,40.13
2022-12-11T06:41:17.533Z,38.75
2022-12-11T06:43:46.282Z,42.88
2022-12-11T06:46:15.076Z,38.05
2022-12-11T06:48:43.075Z,37.35
2022-12-11T06:51:11.498Z,37.17
2022-12-11T06:53:39.144Z,37.40
2022-12-11T06:56:07.361Z,40.60
2022-12-11T06:58:35.416Z,34.03
2022-12-11T07:01:04.607Z,38.85
2022-12-11T07:03:31.995Z,38.90
2022-12-11T07:06:01.333Z,40.75
2022-12-11T07:08:29.151Z,43.03
2022-12-11T07:10:56.529Z,36.90
2022-12-11T07:13:23.846Z,42.05
2022-12-11T07:15:51.222Z,37.95
2022-12-11T07:18:19.936Z,40.85
2022-12-11T07:20:47.251Z,38.95
2022-12-11T07:23:14.548Z,39.05
2022-12-11T07:25:42.008Z,41.13
2022-12-11T07:28:13.657Z,41.47
2022-12-11T07:30:44.098Z,39.22
2022-12-11T07:33:11.455Z,39.47
2022-12-11T07:35:40.199Z,49.38
2022-12-11T07:38:07.540Z,41.70
2022-12-11T07:40:35.076Z,43.60
2022-12-11T07:43:02.419Z,44.05
2022-12-11T07:45:29.799Z,40.67
2022-12-11T07:47:57.120Z,50.35
2022-12-11T07:50:24.434Z,53.05
2022-12-11T07:52:53.284Z,56.88
2022-12-11T07:55:20.603Z,48.35
2022-12-11T07:57:47.916Z,48.20
2022-12-11T08:00:15.639Z,55.28
2022-12-11T08:02:43.158Z,47.67
2022-12-11T08:05:11.131Z,52.63
2022-12-11T08:07:38.856Z,51.30
2022-12-11T08:10:07.878Z,57.30
2022-12-11T08:12:35.200Z,48.88
2022-12-11T08:15:02.580Z,48.55
2022-12-11T08:17:32.887Z,50.15
2022-12-11T08:20:04.335Z,47.92
2022-12-11T08:22:31.628Z,51.72
2022-12-11T08:24:58.918Z,49.28
2022-12-11T08:27:27.587Z,50.83
2022-12-11T08:29:57.514Z,89.43
2022-12-11T08:32:24.844Z,59.65
2022-12-11T08:34:52.521Z,122.82
2022-12-11T08:37:19.884Z,55.30
2022-12-11T08:39:47.847Z,58.38
2022-12-11T08:42:15.226Z,56.75
2022-12-11T08:44:43.932Z,57.45
2022-12-11T08:47:11.299Z,51.92
2022-12-11T08:49:38.814Z,50.10
2022-12-11T08:52:06.372Z,54.95
2022-12-11T08:54:33.724Z,55.88
2022-12-11T08:57:01.060Z,54.83
2022-12-11T08:59:28.390Z,48.88
2022-12-11T09:01:57.082Z,46.35
2022-12-11T09:04:24.419Z,59.13
2022-12-11T09:06:51.766Z,53.63
2022-12-11T09:09:19.627Z,57.30
2022-12-11T09:11:46.941Z,56.15
2022-12-11T09:14:15.932Z,44.13
2022-12-11T09:16:43.327Z,51.42
2022-12-11T09:19:13.934Z,46.85
2022-12-11T09:21:41.648Z,54.60
2022-12-11T09:24:10.449Z,60.40
2022-12-11T09:26:37.860Z,60.97
2022-12-11T09:29:05.734Z,52.55
2022-12-11T09:31:33.576Z,55.30
2022-12-11T09:34:02.120Z,58.78
2022-12-11T09:36:30.789Z,60.75
2022-12-11T09:39:00.871Z,55.55
2022-12-11T09:41:33.448Z,59.08
2022-12-11T09:44:03.227Z,61.00
2022-12-11T09:46:34.140Z,60.20
2022-12-11T09:49:02.851Z,57.60
2022-12-11T09:51:36.052Z,59.15
2022-12-11T09:54:04.376Z,62.33
2022-12-11T09:56:33.971Z,60.95
2022-12-11T09:59:04.829Z,53.55
2022-12-11T10:01:36.883Z,55.45
2022-12-11T10:04:11.391Z,54.67
2022-12-11T10:06:42.924Z,55.88
2022-12-11T10:09:15.339Z,55.78
2022-12-11T10:11:56.881Z,57.83
2022-12-11T10:14:33.492Z,54.50
2022-12-11T10:17:03.197Z,55.08
2022-12-11T10:19:30.883Z,53.03
2022-12-11T10:22:00.592Z,50.03
2022-12-11T10:25:07.774Z,57.15
2022-12-11T10:27:21.078Z,50.95
2022-12-11T10:29:48.728Z,49.80
2022-12-11T10:32:21.612Z,56.22
2022-12-11T10:34:51.144Z,65.93
2022-12-11T10:37:19.773Z,61.03
2022-12-11T10:39:47.132Z,62.92
2022-12-11T10:42:17.364Z,66.95
2022-12-11T10:44:55.880Z,59.85
2022-12-11T10:47:23.144Z,65.00
2022-12-11T10:49:53.251Z,59.75
2022-12-11T10:52:23.756Z,63.50
2022-12-11T10:54:55.966Z,62.25
2022-12-11T10:57:28.527Z,56.85
2022-12-11T10:59:56.274Z,57.72
2022-12-11T11:02:25.219Z,62.95
2022-12-11T11:04:53.165Z,66.65
2022-12-11T11:07:23.568Z,69.68
2022-12-11T11:09:51.684Z,64.85
2022-12-11T11:12:23.397Z,79.95
2022-12-11T11:14:59.944Z,83.63
2022-12-11T11:17:30.758Z,76.43
2022-12-11T11:22:32.089Z,78.78
2022-12-11T11:24:59.683Z,70.65
2022-12-11T11:27:29.831Z,77.10
2022-12-11T11:29:58.352Z,76.55
2022-12-11T11:32:28.313Z,83.43
2022-12-11T11:35:06.045Z,74.13
2022-12-11T11:37:35.131Z,77.07
2022-12-11T11:40:04.882Z,73.78
2022-12-11T11:42:38.441Z,77.75
2022-12-11T11:45:07.887Z,71.90
2022-12-11T11:47:37.296Z,73.72
2022-12-11T11:50:07.189Z,74.50
2022-12-11T11:52:38.678Z,71.03
2022-12-11T11:55:10.107Z,68.03
2022-12-11T11:57:42.231Z,79.40
2022-12-11T12:00:16.669Z,75.70
2022-12-11T12:02:46.915Z,77.50
2022-12-11T12:05:14.579Z,74.35
2022-12-11T12:07:46.753Z,81.05
2022-12-11T12:10:17.594Z,74.07
2022-12-11T12:12:50.508Z,80.20
2022-12-11T12:15:39.096Z,77.68
2022-12-11T12:18:12.896Z,79.35
2022-12-11T12:20:44.934Z,80.93
2022-12-11T12:23:36.481Z,85.00
2022-12-11T12:26:09.382Z,82.22
2022-12-11T12:28:40.142Z,84.55
2022-12-11T12:31:17.159Z,87.00
2022-12-11T12:33:52.203Z,84.05
2022-12-11T12:36:24.221Z,87.72
2022-12-11T12:38:54.880Z,92.88
2022-12-11T12:41:26.371Z,99.47
2022-12-11T12:44:01.310Z,95.22
2022-12-11T12:46:34.132Z,91.40
2022-12-11T12:49:02.456Z,85.10
2022-12-11T12:51:30.294Z,87.53
2022-12-11T12:53:59.288Z,83.68
2022-12-11T12:56:28.874Z,88.20
2022-12-11T12:58:56.264Z,80.65
2022-12-11T13:01:25.442Z,61.85
2022-12-11T13:03:56.492Z,56.42
2022-12-11T13:06:35.472Z,64.32
2022-12-11T13:09:15.158Z,58.03
2022-12-11T13:11:44.287Z,57.35
2022-12-11T13:14:27.056Z,54.20
2022-12-11T13:17:05.236Z,54.40
2022-12-11T13:19:37.636Z,54.58
2022-12-11T13:22:21.227Z,50.75
2022-12-11T13:24:51.730Z,47.38
2022-12-11T13:27:25.740Z,47.17
2022-12-11T13:29:53.496Z,50.80
2022-12-11T13:32:22.995Z,49.40
2022-12-11T13:34:52.786Z,47.40
2022-12-11T13:37:25.011Z,51.88
2022-12-11T13:39:52.748Z,49.25
2022-12-11T13:42:23.200Z,50.42
2022-12-11T13:44:52.180Z,50.28
2022-12-11T13:47:21.210Z,47.38
2022-12-11T13:49:49.998Z,53.08
2022-12-11T13:52:18.413Z,49.22
2022-12-11T13:54:49.012Z,51.33
2022-12-11T13:57:17.845Z,52.15
2022-12-11T13:59:48.541Z,57.10
2022-12-11T14:02:20.166Z,50.92
2022-12-11T14:04:48.997Z,51.85
2022-12-11T14:07:19.304Z,57.47
2022-12-11T14:09:46.932Z,52.63
2022-12-11T14:12:17.312Z,51.15
2022-12-11T14:14:46.510Z,58.65
2022-12-11T14:17:15.108Z,52.33
2022-12-11T14:19:46.345Z,65.40
2022-12-11T14:22:18.762Z,56.17
2022-12-11T14:24:49.737Z,54.17
2022-12-11T14:27:18.512Z,50.00
2022-12-11T14:29:46.712Z,57.13
2022-12-11T14:32:18.607Z,55.90
2022-12-11T14:34:48.598Z,52.00
2022-12-11T14:37:16.913Z,48.80
2022-12-11T14:39:46.184Z,58.80
2022-12-11T14:42:15.754Z,52.70
2022-12-11T14:44:46.800Z,52.30
2022-12-11T14:47:16.359Z,53.58
2022-12-11T14:49:46.512Z,51.60
2022-12-11T14:52:17.699Z,52.88
2022-12-11T14:54:46.459Z,52.90
2022-12-11T14:57:19.287Z,51.38
2022-12-11T14:59:47.708Z,46.58
2022-12-11T15:02:23.484Z,50.22
2022-12-11T15:04:59.516Z,45.35
2022-12-11T15:07:28.253Z,48.17
2022-12-11T15:09:55.578Z,45.63
2022-12-11T15:12:22.921Z,45.33
2022-12-11T15:14:52.225Z,47.45
2022-12-11T15:17:20.108Z,50.30
2022-12-11T15:19:49.356Z,44.97
2022-12-11T15:22:16.963Z,47.15
2022-12-11T15:24:47.067Z,40.25
2022-12-11T15:27:23.891Z,50.42
2022-12-11T15:29:51.475Z,45.78
2022-12-11T15:32:21.626Z,41.10
2022-12-11T15:34:49.931Z,45.20
2022-12-11T15:37:23.982Z,48.75
2022-12-11T15:39:53.484Z,45.10
2022-12-11T15:42:24.148Z,44.22
2022-12-11T15:44:51.424Z,46.78
2022-12-11T15:47:21.426Z,48.58
2022-12-11T15:49:48.730Z,48.08
2022-12-11T15:52:16.039Z,43.92
2022-12-11T15:54:43.440Z,47.08
2022-12-11T15:57:15.096Z,46.92
2022-12-11T15:59:42.391Z,46.40
2022-12-11T16:02:11.992Z,42.28
2022-12-11T16:04:39.353Z,50.70
2022-12-11T16:07:06.773Z,47.08
2022-12-11T16:09:34.519Z,47.22
2022-12-11T16:12:02.336Z,53.28
2022-12-11T16:14:31.004Z,45.03
2022-12-11T16:16:58.332Z,47.83
2022-12-11T16:19:25.630Z,47.20
2022-12-11T16:21:53.070Z,46.00
2022-12-11T16:24:20.420Z,48.00
2022-12-11T16:26:48.202Z,45.53
2022-12-11T16:29:15.499Z,65.93
2022-12-11T16:31:44.283Z,58.45
2022-12-11T16:34:11.686Z,58.53
2022-12-11T16:36:39.018Z,49.65
2022-12-11T16:39:06.316Z,48.03
2022-12-11T16:41:34.185Z,50.30
2022-12-11T16:44:02.990Z,40.00
2022-12-11T16:46:30.417Z,43.30
2022-12-11T16:48:59.172Z,41.63
2022-12-11T16:51:26.611Z,41.60
2022-12-11T16:53:53.961Z,40.47
2022-12-11T16:56:21.218Z,42.08
2022-12-11T16:58:49.309Z,41.75
2022-12-11T17:01:17.091Z,42.47
2022-12-11T17:03:44.534Z,43.17
2022-12-11T17:06:13.937Z,47.53
2022-12-11T17:08:42.607Z,46.78
2022-12-11T17:11:10.855Z,40.33
2022-12-11T17:13:38.568Z,41.42
2022-12-11T17:16:06.333Z,42.88
2022-12-11T17:18:33.716Z,40.33
2022-12-11T17:21:01.047Z,50.33
2022-12-11T17:23:29.726Z,42.65
2022-12-11T17:25:57.045Z,40.30
2022-12-11T17:28:24.448Z,42.22
2022-12-11T17:30:52.879Z,39.70
2022-12-11T17:33:20.218Z,41.85
2022-12-11T17:35:47.570Z,46.03
2022-12-11T17:38:14.846Z,52.20
2022-12-11T17:40:43.884Z,57.70
2022-12-11T17:43:11.684Z,48.10
2022-12-11T17:45:41.718Z,45.95
2022-12-11T17:48:09.085Z,44.50
2022-12-11T17:50:36.447Z,42.83
2022-12-11T17:53:03.784Z,56.67
2022-12-11T17:55:31.249Z,49.50
2022-12-11T17:58:00.386Z,48.70
2022-12-11T18:00:33.093Z,50.80
2022-12-11T18:03:00.837Z,47.50
2022-12-11T18:05:28.188Z,40.47
2022-12-11T18:07:57.925Z,40.55
2022-12-11T18:10:25.944Z,43.88
2022-12-11T18:12:53.377Z,39.05
2022-12-11T18:15:22.121Z,48.03
2022-12-11T18:17:49.487Z,48.60
2022-12-11T18:20:16.836Z,47.30
2022-12-11T18:22:44.389Z,44.47
2022-12-11T18:25:12.201Z,43.80
2022-12-11T18:27:40.034Z,62.65
2022-12-11T18:30:07.868Z,54.88
2022-12-11T18:32:36.556Z,49.05
2022-12-11T18:35:04.476Z,45.53
2022-12-11T18:37:32.274Z,47.17
2022-12-11T18:39:59.588Z,47.25
2022-12-11T18:42:34.161Z,44.63
2022-12-11T18:47:28.863Z,49.22
2022-12-11T18:50:00.120Z,53.00
2022-12-11T18:52:31.408Z,45.08
2022-12-11T18:54:58.799Z,41.22
2022-12-11T18:57:26.131Z,45.58
2022-12-11T18:59:54.235Z,44.78
2022-12-11T19:02:21.706Z,45.50
2022-12-11T19:04:49.264Z,41.78
2022-12-11T19:07:17.944Z,48.92
2022-12-11T19:09:48.340Z,41.58
2022-12-11T19:12:15.970Z,40.47
2022-12-11T19:14:43.338Z,49.03
2022-12-11T19:17:10.664Z,39.38
2022-12-11T19:19:38.169Z,44.58
2022-12-11T19:22:06.054Z,47.28
2022-12-11T19:24:34.732Z,61.33
2022-12-11T19:27:02.034Z,65.90
2022-12-11T19:29:32.205Z,50.80
2022-12-11T19:32:02.499Z,47.13
2022-12-11T19:34:29.908Z,50.38
2022-12-11T19:36:57.464Z,47.53
2022-12-11T19:39:25.002Z,42.38
2022-12-11T19:41:53.761Z,39.50
2022-12-11T19:44:21.039Z,48.08
2022-12-11T19:46:48.423Z,45.15
2022-12-11T19:49:15.774Z,60.83
2022-12-11T19:51:43.728Z,57.58
2022-12-11T19:54:13.924Z,55.67
2022-12-11T19:56:41.319Z,40.05
2022-12-11T19:59:10.699Z,41.55
2022-12-11T20:01:38.549Z,39.53
2022-12-11T20:04:07.579Z,42.65
2022-12-11T20:06:35.609Z,45.28
2022-12-11T20:09:05.612Z,43.03
2022-12-11T20:11:32.969Z,44.40
2022-12-11T20:14:00.710Z,48.47
2022-12-11T20:16:53.770Z,43.50
2022-12-11T20:19:17.060Z,42.00
2022-12-11T20:21:44.404Z,40.97
2022-12-11T20:24:12.148Z,44.88
2022-12-11T20:26:39.486Z,48.90
2022-12-11T20:29:08.221Z,42.63
2022-12-11T20:31:37.356Z,76.10
2022-12-11T20:34:05.252Z,92.50
2022-12-11T20:36:32.893Z,53.20
2022-12-11T20:39:00.319Z,75.80
2022-12-11T20:41:29.262Z,61.15
2022-12-11T20:43:56.778Z,44.80
2022-12-11T20:46:25.384Z,46.72
2022-12-11T20:48:54.962Z,43.85
2022-12-11T20:51:26.133Z,45.47
2022-12-11T20:53:58.165Z,40.35
2022-12-11T20:56:26.220Z,43.83
2022-12-11T20:58:53.603Z,41.15
2022-12-11T21:01:22.260Z,42.70
2022-12-11T21:03:49.917Z,43.50
2022-12-11T21:06:22.302Z,45.97
2022-12-11T21:08:49.696Z,47.65
2022-12-11T21:11:17.160Z,49.47
2022-12-11T21:13:44.622Z,45.40
2022-12-11T21:16:12.264Z,49.10
2022-12-11T21:18:39.691Z,60.75
2022-12-11T21:21:07.456Z,76.80
2022-12-11T21:23:36.142Z,52.58
2022-12-11T21:26:04.182Z,57.28
2022-12-11T21:28:35.440Z,43.80
2022-12-11T21:31:03.235Z,44.85
2022-12-11T21:33:31.867Z,47.95
2022-12-11T21:36:00.263Z,45.70
2022-12-11T21:38:27.707Z,47.53
2022-12-11T21:40:56.827Z,50.22
2022-12-11T21:43:24.176Z,57.70
2022-12-11T21:46:01.017Z,50.70
2022-12-11T21:48:29.354Z,44.95
2022-12-11T21:50:56.744Z,74.47
2022-12-11T21:53:24.049Z,62.70
2022-12-11T21:55:51.384Z,45.28
2022-12-11T21:58:20.154Z,52.17
2022-12-11T22:00:47.518Z,51.47
2022-12-11T22:03:14.930Z,43.72
2022-12-11T22:05:42.249Z,49.50
2022-12-11T22:08:09.639Z,49.13
2022-12-11T22:10:37.036Z,53.05
2022-12-11T22:13:04.374Z,48.35
2022-12-11T22:15:33.411Z,59.72
2022-12-11T22:18:00.739Z,46.08
2022-12-11T22:20:28.084Z,122.90
2022-12-11T22:22:55.447Z,69.95
2022-12-11T22:25:22.798Z,106.07
2022-12-11T22:27:50.900Z,47.45
2022-12-11T22:30:18.418Z,99.68
2022-12-11T22:32:47.184Z,56.92
2022-12-11T22:35:14.879Z,53.47
2022-12-11T22:37:42.456Z,46.75
2022-12-11T22:40:10.442Z,57.38
2022-12-11T22:42:37.983Z,35.22
2022-12-11T22:45:05.704Z,37.75
2022-12-11T22:47:33.207Z,33.65
2022-12-11T22:50:01.954Z,33.33
2022-12-11T22:52:29.731Z,36.95
2022-12-11T22:54:57.034Z,34.42
2022-12-11T22:57:24.370Z,38.20
2022-12-11T22:59:51.728Z,36.85
2022-12-11T23:02:19.060Z,33.97
2022-12-11T23:04:46.468Z,34.78
2022-12-11T23:07:15.226Z,34.13
2022-12-11T23:09:42.711Z,37.35
2022-12-11T23:12:10.057Z,35.17
2022-12-11T23:14:37.421Z,31.13
2022-12-11T23:17:04.781Z,32.45
2022-12-11T23:19:32.157Z,37.25
2022-12-11T23:21:59.540Z,35.25
2022-12-11T23:24:28.176Z,32.05
2022-12-11T23:26:55.503Z,38.58
2022-12-11T23:29:22.847Z,33.10
2022-12-11T23:31:50.214Z,33.15
2022-12-11T23:34:17.525Z,31.65
2022-12-11T23:36:44.879Z,35.05
2022-12-11T23:39:12.177Z,35.72
2022-12-11T23:41:40.933Z,33.88
2022-12-11T23:44:08.351Z,30.35
2022-12-11T23:46:35.793Z,34.55
2022-12-11T23:49:05.523Z,31.02
2022-12-11T23:51:32.937Z,34.75
2022-12-11T23:54:00.353Z,32.30
2022-12-11T23:56:29.390Z,31.67
2022-12-11T23:58:58.141Z,33.35
